sensor_id;sensor_type;location;lat;lon;timestamp;pressure;altitude;pressure_sealevel;temperature
64394;BMP280;50712;49.506;10.400;2023-06-24T00:00:09;98953.88;;;20.66
64394;BMP280;50712;49.506;10.400;2023-06-24T00:00:41;98958.66;;;20.66
64394;BMP280;50712;49.506;10.400;2023-06-24T00:01:12;98950.84;;;20.64
64394;BMP280;50712;49.506;10.400;2023-06-24T00:01:43;98952.06;;;20.63
64394;BMP280;50712;49.506;10.400;2023-06-24T00:02:13;98955.38;;;20.62
64394;BMP280;50712;49.506;10.400;2023-06-24T00:02:44;98953.84;;;20.61
64394;BMP280;50712;49.506;10.400;2023-06-24T00:03:15;98953.84;;;20.61
64394;BMP280;50712;49.506;10.400;2023-06-24T00:03:47;98953.06;;;20.60
64394;BMP280;50712;49.506;10.400;2023-06-24T00:04:18;98953.56;;;20.59
64394;BMP280;50712;49.506;10.400;2023-06-24T00:04:49;98952.06;;;20.58
64394;BMP280;50712;49.506;10.400;2023-06-24T00:05:21;98946.25;;;20.56
64394;BMP280;50712;49.506;10.400;2023-06-24T00:05:51;98950.25;;;20.55
64394;BMP280;50712;49.506;10.400;2023-06-24T00:06:22;98948.75;;;20.54
64394;BMP280;50712;49.506;10.400;2023-06-24T00:06:55;98952.78;;;20.53
64394;BMP280;50712;49.506;10.400;2023-06-24T00:07:29;98951.25;;;20.52
64394;BMP280;50712;49.506;10.400;2023-06-24T00:07:59;98958.03;;;20.51
64394;BMP280;50712;49.506;10.400;2023-06-24T00:08:32;98953.75;;;20.50
64394;BMP280;50712;49.506;10.400;2023-06-24T00:09:04;98960.56;;;20.49
64394;BMP280;50712;49.506;10.400;2023-06-24T00:09:34;98961.78;;;20.48
64394;BMP280;50712;49.506;10.400;2023-06-24T00:10:05;98944.94;;;20.46
64394;BMP280;50712;49.506;10.400;2023-06-24T00:10:37;98958.03;;;20.45
64394;BMP280;50712;49.506;10.400;2023-06-24T00:11:07;98956.50;;;20.44
64394;BMP280;50712;49.506;10.400;2023-06-24T00:11:38;98956.97;;;20.43
64394;BMP280;50712;49.506;10.400;2023-06-24T00:12:08;98958.25;;;20.42
64394;BMP280;50712;49.506;10.400;2023-06-24T00:12:38;98962.25;;;20.41
64394;BMP280;50712;49.506;10.400;2023-06-24T00:13:11;98956.44;;;20.39
64394;BMP280;50712;49.506;10.400;2023-06-24T00:13:41;98956.44;;;20.39
64394;BMP280;50712;49.506;10.400;2023-06-24T00:14:12;98958.19;;;20.36
64394;BMP280;50712;49.506;10.400;2023-06-24T00:14:46;98959.44;;;20.35
64394;BMP280;50712;49.506;10.400;2023-06-24T00:15:16;98957.16;;;20.34
64394;BMP280;50712;49.506;10.400;2023-06-24T00:15:48;98961.19;;;20.33
64394;BMP280;50712;49.506;10.400;2023-06-24T00:16:18;98965.19;;;20.32
64394;BMP280;50712;49.506;10.400;2023-06-24T00:16:56;98956.63;;;20.30
64394;BMP280;50712;49.506;10.400;2023-06-24T00:17:26;98966.19;;;20.29
64394;BMP280;50712;49.506;10.400;2023-06-24T00:17:58;98956.34;;;20.28
64394;BMP280;50712;49.506;10.400;2023-06-24T00:18:35;98965.91;;;20.27
64394;BMP280;50712;49.506;10.400;2023-06-24T00:19:07;98965.91;;;20.27
64394;BMP280;50712;49.506;10.400;2023-06-24T00:19:38;98968.41;;;20.25
64394;BMP280;50712;49.506;10.400;2023-06-24T00:20:08;98964.16;;;20.24
64394;BMP280;50712;49.506;10.400;2023-06-24T00:20:41;98965.38;;;20.23
64394;BMP280;50712;49.506;10.400;2023-06-24T00:21:13;98968.16;;;20.23
64394;BMP280;50712;49.506;10.400;2023-06-24T00:21:47;98968.59;;;20.21
64394;BMP280;50712;49.506;10.400;2023-06-24T00:22:18;98961.59;;;20.20
64394;BMP280;50712;49.506;10.400;2023-06-24T00:22:49;98967.59;;;20.19
64394;BMP280;50712;49.506;10.400;2023-06-24T00:23:21;98969.59;;;20.18
64394;BMP280;50712;49.506;10.400;2023-06-24T00:23:56;98970.09;;;20.17
64394;BMP280;50712;49.506;10.400;2023-06-24T00:24:27;98965.81;;;20.16
64394;BMP280;50712;49.506;10.400;2023-06-24T00:24:58;98970.59;;;20.15
64394;BMP280;50712;49.506;10.400;2023-06-24T00:25:30;98968.31;;;20.14
64394;BMP280;50712;49.506;10.400;2023-06-24T00:26:00;98966.03;;;20.12
64394;BMP280;50712;49.506;10.400;2023-06-24T00:26:31;98975.59;;;20.11
64394;BMP280;50712;49.506;10.400;2023-06-24T00:27:02;98963.78;;;20.11
64394;BMP280;50712;49.506;10.400;2023-06-24T00:27:32;98973.31;;;20.10
64394;BMP280;50712;49.506;10.400;2023-06-24T00:28:03;98964.25;;;20.09
64394;BMP280;50712;49.506;10.400;2023-06-24T00:28:34;98971.53;;;20.07
64394;BMP280;50712;49.506;10.400;2023-06-24T00:29:06;98973.53;;;20.06
64394;BMP280;50712;49.506;10.400;2023-06-24T00:29:37;98973.25;;;20.04
64394;BMP280;50712;49.506;10.400;2023-06-24T00:30:07;98961.44;;;20.04
64394;BMP280;50712;49.506;10.400;2023-06-24T00:30:39;98959.16;;;20.02
64394;BMP280;50712;49.506;10.400;2023-06-24T00:31:09;98963.94;;;20.02
64394;BMP280;50712;49.506;10.400;2023-06-24T00:31:41;98967.16;;;20.00
64394;BMP280;50712;49.506;10.400;2023-06-24T00:32:12;98955.38;;;20.00
64394;BMP280;50712;49.506;10.400;2023-06-24T00:32:42;98971.19;;;19.99
64394;BMP280;50712;49.506;10.400;2023-06-24T00:33:12;98966.16;;;19.98
64394;BMP280;50712;49.506;10.400;2023-06-24T00:33:43;98962.63;;;19.97
64394;BMP280;50712;49.506;10.400;2023-06-24T00:34:14;98965.38;;;19.97
64394;BMP280;50712;49.506;10.400;2023-06-24T00:34:44;98963.13;;;19.96
64394;BMP280;50712;49.506;10.400;2023-06-24T00:35:17;98965.16;;;19.95
64394;BMP280;50712;49.506;10.400;2023-06-24T00:35:48;98962.06;;;19.93
64394;BMP280;50712;49.506;10.400;2023-06-24T00:36:19;98965.59;;;19.94
64394;BMP280;50712;49.506;10.400;2023-06-24T00:36:50;98959.06;;;19.91
64394;BMP280;50712;49.506;10.400;2023-06-24T00:37:21;98956.28;;;19.91
64394;BMP280;50712;49.506;10.400;2023-06-24T00:37:52;98958.28;;;19.91
64394;BMP280;50712;49.506;10.400;2023-06-24T00:38:28;98959.53;;;19.90
64394;BMP280;50712;49.506;10.400;2023-06-24T00:39:02;98957.25;;;19.88
64394;BMP280;50712;49.506;10.400;2023-06-24T00:39:33;98962.78;;;19.88
64394;BMP280;50712;49.506;10.400;2023-06-24T00:40:04;98948.72;;;19.86
64394;BMP280;50712;49.506;10.400;2023-06-24T00:40:37;98963.78;;;19.85
64394;BMP280;50712;49.506;10.400;2023-06-24T00:41:07;98956.72;;;19.84
64394;BMP280;50712;49.506;10.400;2023-06-24T00:41:38;98958.72;;;19.84
64394;BMP280;50712;49.506;10.400;2023-06-24T00:42:08;98953.69;;;19.82
64394;BMP280;50712;49.506;10.400;2023-06-24T00:42:38;98955.69;;;19.82
64394;BMP280;50712;49.506;10.400;2023-06-24T00:43:09;98956.91;;;19.81
64394;BMP280;50712;49.506;10.400;2023-06-24T00:43:39;98947.13;;;19.80
64394;BMP280;50712;49.506;10.400;2023-06-24T00:44:10;98949.13;;;19.79
64394;BMP280;50712;49.506;10.400;2023-06-24T00:44:40;98948.38;;;19.79
64394;BMP280;50712;49.506;10.400;2023-06-24T00:45:11;98955.91;;;19.78
64394;BMP280;50712;49.506;10.400;2023-06-24T00:45:42;98959.91;;;19.77
64394;BMP280;50712;49.506;10.400;2023-06-24T00:46:13;98947.34;;;19.76
64394;BMP280;50712;49.506;10.400;2023-06-24T00:46:45;98952.88;;;19.76
64394;BMP280;50712;49.506;10.400;2023-06-24T00:47:15;98950.09;;;19.76
64394;BMP280;50712;49.506;10.400;2023-06-24T00:47:46;98950.56;;;19.75
64394;BMP280;50712;49.506;10.400;2023-06-24T00:48:17;98947.06;;;19.74
64394;BMP280;50712;49.506;10.400;2023-06-24T00:48:47;98945.03;;;19.75
64394;BMP280;50712;49.506;10.400;2023-06-24T00:49:18;98943.56;;;19.74
64394;BMP280;50712;49.506;10.400;2023-06-24T00:49:48;98945.56;;;19.73
64394;BMP280;50712;49.506;10.400;2023-06-24T00:50:18;98944.78;;;19.73
64394;BMP280;50712;49.506;10.400;2023-06-24T00:50:49;98943.25;;;19.72
64394;BMP280;50712;49.506;10.400;2023-06-24T00:51:19;98945.25;;;19.71
64394;BMP280;50712;49.506;10.400;2023-06-24T00:51:51;98952.03;;;19.70
64394;BMP280;50712;49.506;10.400;2023-06-24T00:52:21;98946.03;;;19.72
64394;BMP280;50712;49.506;10.400;2023-06-24T00:52:52;98949.28;;;19.70
64394;BMP280;50712;49.506;10.400;2023-06-24T00:53:22;98952.53;;;19.68
64394;BMP280;50712;49.506;10.400;2023-06-24T00:53:55;98945.00;;;19.69
64394;BMP280;50712;49.506;10.400;2023-06-24T00:54:25;98949.78;;;19.68
64394;BMP280;50712;49.506;10.400;2023-06-24T00:55:00;98949.00;;;19.68
64394;BMP280;50712;49.506;10.400;2023-06-24T00:55:32;98955.31;;;19.68
64394;BMP280;50712;49.506;10.400;2023-06-24T00:56:03;98956.06;;;19.69
64394;BMP280;50712;49.506;10.400;2023-06-24T00:56:35;98951.75;;;19.68
64394;BMP280;50712;49.506;10.400;2023-06-24T00:57:08;98954.53;;;19.68
64394;BMP280;50712;49.506;10.400;2023-06-24T00:57:39;98953.31;;;19.69
64394;BMP280;50712;49.506;10.400;2023-06-24T00:58:11;98954.53;;;19.68
64394;BMP280;50712;49.506;10.400;2023-06-24T00:58:46;98940.72;;;19.68
64394;BMP280;50712;49.506;10.400;2023-06-24T00:59:17;98951.75;;;19.68
64394;BMP280;50712;49.506;10.400;2023-06-24T00:59:48;98957.28;;;19.68
64394;BMP280;50712;49.506;10.400;2023-06-24T01:00:23;98948.22;;;19.67
64394;BMP280;50712;49.506;10.400;2023-06-24T01:00:53;98953.03;;;19.67
64394;BMP280;50712;49.506;10.400;2023-06-24T01:01:28;98952.25;;;19.66
64394;BMP280;50712;49.506;10.400;2023-06-24T01:02:03;98951.50;;;19.66
64394;BMP280;50712;49.506;10.400;2023-06-24T01:02:37;98945.22;;;19.65
64394;BMP280;50712;49.506;10.400;2023-06-24T01:03:09;98949.97;;;19.65
64394;BMP280;50712;49.506;10.400;2023-06-24T01:03:44;98943.69;;;19.64
64394;BMP280;50712;49.506;10.400;2023-06-24T01:04:15;98952.75;;;19.65
64394;BMP280;50712;49.506;10.400;2023-06-24T01:04:46;98954.25;;;19.66
64394;BMP280;50712;49.506;10.400;2023-06-24T01:05:18;98948.00;;;19.65
64394;BMP280;50712;49.506;10.400;2023-06-24T01:05:53;98951.97;;;19.64
64394;BMP280;50712;49.506;10.400;2023-06-24T01:06:24;98944.44;;;19.65
64394;BMP280;50712;49.506;10.400;2023-06-24T01:06:59;98947.22;;;19.65
64394;BMP280;50712;49.506;10.400;2023-06-24T01:07:30;98944.44;;;19.65
64394;BMP280;50712;49.506;10.400;2023-06-24T01:08:01;98932.34;;;19.62
64394;BMP280;50712;49.506;10.400;2023-06-24T01:08:32;98946.44;;;19.64
64394;BMP280;50712;49.506;10.400;2023-06-24T01:09:02;98949.72;;;19.63
64394;BMP280;50712;49.506;10.400;2023-06-24T01:09:35;98939.88;;;19.62
64394;BMP280;50712;49.506;10.400;2023-06-24T01:10:08;98936.34;;;19.61
64394;BMP280;50712;49.506;10.400;2023-06-24T01:10:40;98941.88;;;19.61
64394;BMP280;50712;49.506;10.400;2023-06-24T01:11:10;98940.88;;;19.59
64394;BMP280;50712;49.506;10.400;2023-06-24T01:11:40;98935.34;;;19.59
64394;BMP280;50712;49.506;10.400;2023-06-24T01:12:11;98930.28;;;19.57
64394;BMP280;50712;49.506;10.400;2023-06-24T01:12:41;98937.84;;;19.57
64394;BMP280;50712;49.506;10.400;2023-06-24T01:13:14;98943.38;;;19.57
64394;BMP280;50712;49.506;10.400;2023-06-24T01:13:45;98940.63;;;19.57
64394;BMP280;50712;49.506;10.400;2023-06-24T01:14:15;98930.03;;;19.55
64394;BMP280;50712;49.506;10.400;2023-06-24T01:14:50;98934.03;;;19.54
64394;BMP280;50712;49.506;10.400;2023-06-24T01:15:20;98937.53;;;19.55
64394;BMP280;50712;49.506;10.400;2023-06-24T01:15:52;98936.03;;;19.54
64394;BMP280;50712;49.506;10.400;2023-06-24T01:17:03;98936.53;;;19.52
64394;BMP280;50712;49.506;10.400;2023-06-24T01:17:47;98933.00;;;19.52
64394;BMP280;50712;49.506;10.400;2023-06-24T01:18:29;98930.72;;;19.50
64394;BMP280;50712;49.506;10.400;2023-06-24T01:19:13;98928.41;;;19.49
64394;BMP280;50712;49.506;10.400;2023-06-24T01:21:14;98922.38;;;19.45
64394;BMP280;50712;49.506;10.400;2023-06-24T01:24:17;98930.88;;;19.41
64394;BMP280;50712;49.506;10.400;2023-06-24T01:29:42;98919.25;;;19.37
64394;BMP280;50712;49.506;10.400;2023-06-24T01:30:33;98913.72;;;19.37
64394;BMP280;50712;49.506;10.400;2023-06-24T01:32:23;98915.47;;;19.35
64394;BMP280;50712;49.506;10.400;2023-06-24T01:32:54;98918.25;;;19.35
64394;BMP280;50712;49.506;10.400;2023-06-24T01:33:32;98915.19;;;19.33
64394;BMP280;50712;49.506;10.400;2023-06-24T01:34:34;98916.16;;;19.30
64394;BMP280;50712;49.506;10.400;2023-06-24T01:35:12;98914.66;;;19.29
64394;BMP280;50712;49.506;10.400;2023-06-24T01:35:46;98920.63;;;19.27
64394;BMP280;50712;49.506;10.400;2023-06-24T01:36:17;98921.91;;;19.26
64394;BMP280;50712;49.506;10.400;2023-06-24T01:36:54;98923.16;;;19.25
64394;BMP280;50712;49.506;10.400;2023-06-24T01:37:44;98925.16;;;19.25
64394;BMP280;50712;49.506;10.400;2023-06-24T01:38:28;98918.84;;;19.24
64394;BMP280;50712;49.506;10.400;2023-06-24T01:39:07;98924.09;;;19.22
64394;BMP280;50712;49.506;10.400;2023-06-24T01:39:42;98924.09;;;19.22
64394;BMP280;50712;49.506;10.400;2023-06-24T01:41:03;98921.06;;;19.20
64394;BMP280;50712;49.506;10.400;2023-06-24T01:41:39;98917.53;;;19.20
64394;BMP280;50712;49.506;10.400;2023-06-24T01:42:12;98925.81;;;19.20
64394;BMP280;50712;49.506;10.400;2023-06-24T01:42:45;98922.78;;;19.18
64394;BMP280;50712;49.506;10.400;2023-06-24T01:43:17;98918.50;;;19.17
64394;BMP280;50712;49.506;10.400;2023-06-24T01:43:52;98919.28;;;19.17
64394;BMP280;50712;49.506;10.400;2023-06-24T01:44:23;98918.50;;;19.17
64394;BMP280;50712;49.506;10.400;2023-06-24T01:44:55;98921.75;;;19.15
64394;BMP280;50712;49.506;10.400;2023-06-24T01:45:29;98916.25;;;19.15
64394;BMP280;50712;49.506;10.400;2023-06-24T01:46:06;98921.75;;;19.15
64394;BMP280;50712;49.506;10.400;2023-06-24T01:46:39;98916.25;;;19.15
64394;BMP280;50712;49.506;10.400;2023-06-24T01:47:12;98923.00;;;19.14
64394;BMP280;50712;49.506;10.400;2023-06-24T01:47:49;98925.75;;;19.14
64394;BMP280;50712;49.506;10.400;2023-06-24T01:48:36;98917.97;;;19.13
64394;BMP280;50712;49.506;10.400;2023-06-24T01:49:13;98914.44;;;19.12
64394;BMP280;50712;49.506;10.400;2023-06-24T01:49:46;98916.44;;;19.12
64394;BMP280;50712;49.506;10.400;2023-06-24T01:50:19;98925.97;;;19.11
64394;BMP280;50712;49.506;10.400;2023-06-24T01:50:57;98909.88;;;19.09
64394;BMP280;50712;49.506;10.400;2023-06-24T01:51:29;98911.91;;;19.09
64394;BMP280;50712;49.506;10.400;2023-06-24T01:52:02;98915.88;;;19.08
64394;BMP280;50712;49.506;10.400;2023-06-24T01:52:35;98909.31;;;19.05
64394;BMP280;50712;49.506;10.400;2023-06-24T01:53:10;98916.06;;;19.04
64394;BMP280;50712;49.506;10.400;2023-06-24T01:53:44;98909.06;;;19.03
64394;BMP280;50712;49.506;10.400;2023-06-24T01:54:22;98912.28;;;19.02
64394;BMP280;50712;49.506;10.400;2023-06-24T01:54:55;98913.50;;;19.01
64394;BMP280;50712;49.506;10.400;2023-06-24T01:55:28;98916.78;;;18.99
64394;BMP280;50712;49.506;10.400;2023-06-24T01:56:02;98911.72;;;18.98
64394;BMP280;50712;49.506;10.400;2023-06-24T01:56:34;98907.47;;;18.97
64394;BMP280;50712;49.506;10.400;2023-06-24T01:57:08;98908.69;;;18.96
64394;BMP280;50712;49.506;10.400;2023-06-24T01:57:41;98912.69;;;18.95
64394;BMP280;50712;49.506;10.400;2023-06-24T01:58:12;98915.19;;;18.93
64394;BMP280;50712;49.506;10.400;2023-06-24T01:58:46;98906.66;;;18.91
64394;BMP280;50712;49.506;10.400;2023-06-24T01:59:21;98915.38;;;18.89
64394;BMP280;50712;49.506;10.400;2023-06-24T01:59:53;98914.63;;;18.89
64394;BMP280;50712;49.506;10.400;2023-06-24T02:00:25;98913.13;;;18.88
64394;BMP280;50712;49.506;10.400;2023-06-24T02:00:56;98908.09;;;18.86
64394;BMP280;50712;49.506;10.400;2023-06-24T02:01:27;98912.06;;;18.85
64394;BMP280;50712;49.506;10.400;2023-06-24T02:01:59;98912.56;;;18.84
64394;BMP280;50712;49.506;10.400;2023-06-24T02:02:30;98907.50;;;18.82
64394;BMP280;50712;49.506;10.400;2023-06-24T02:03:04;98906.00;;;18.81
64394;BMP280;50712;49.506;10.400;2023-06-24T02:03:35;98912.00;;;18.80
64394;BMP280;50712;49.506;10.400;2023-06-24T02:04:08;98912.00;;;18.80
64394;BMP280;50712;49.506;10.400;2023-06-24T02:04:40;98912.47;;;18.78
64394;BMP280;50712;49.506;10.400;2023-06-24T02:05:11;98909.72;;;18.78
64394;BMP280;50712;49.506;10.400;2023-06-24T02:05:42;98917.22;;;18.78
64394;BMP280;50712;49.506;10.400;2023-06-24T02:06:14;98910.69;;;18.75
64394;BMP280;50712;49.506;10.400;2023-06-24T02:06:48;98910.69;;;18.75
64394;BMP280;50712;49.506;10.400;2023-06-24T02:07:24;98904.41;;;18.75
64394;BMP280;50712;49.506;10.400;2023-06-24T02:07:57;98909.94;;;18.75
64394;BMP280;50712;49.506;10.400;2023-06-24T02:08:30;98902.88;;;18.74
64394;BMP280;50712;49.506;10.400;2023-06-24T02:09:03;98905.63;;;18.74
64394;BMP280;50712;49.506;10.400;2023-06-24T02:09:35;98902.09;;;18.73
64394;BMP280;50712;49.506;10.400;2023-06-24T02:10:07;98903.34;;;18.72
64394;BMP280;50712;49.506;10.400;2023-06-24T02:10:38;98906.13;;;18.72
64394;BMP280;50712;49.506;10.400;2023-06-24T02:11:10;98903.34;;;18.72
64394;BMP280;50712;49.506;10.400;2023-06-24T02:11:43;98901.84;;;18.71
64394;BMP280;50712;49.506;10.400;2023-06-24T02:12:14;98905.06;;;18.69
64394;BMP280;50712;49.506;10.400;2023-06-24T02:12:46;98900.31;;;18.70
64394;BMP280;50712;49.506;10.400;2023-06-24T02:13:18;98903.56;;;18.68
64394;BMP280;50712;49.506;10.400;2023-06-24T02:13:51;98901.28;;;18.67
64394;BMP280;50712;49.506;10.400;2023-06-24T02:14:25;98903.28;;;18.66
64394;BMP280;50712;49.506;10.400;2023-06-24T02:14:57;98904.53;;;18.65
64394;BMP280;50712;49.506;10.400;2023-06-24T02:15:29;98898.25;;;18.65
64394;BMP280;50712;49.506;10.400;2023-06-24T02:16:02;98897.47;;;18.64
64394;BMP280;50712;49.506;10.400;2023-06-24T02:16:36;98903.00;;;18.64
64394;BMP280;50712;49.506;10.400;2023-06-24T02:17:10;98907.75;;;18.64
64394;BMP280;50712;49.506;10.400;2023-06-24T02:17:42;98901.50;;;18.63
64394;BMP280;50712;49.506;10.400;2023-06-24T02:18:13;98903.47;;;18.63
64394;BMP280;50712;49.506;10.400;2023-06-24T02:18:45;98903.47;;;18.63
64394;BMP280;50712;49.506;10.400;2023-06-24T02:19:18;98902.72;;;18.62
64394;BMP280;50712;49.506;10.400;2023-06-24T02:19:50;98900.72;;;18.63
64394;BMP280;50712;49.506;10.400;2023-06-24T02:20:21;98905.47;;;18.62
64394;BMP280;50712;49.506;10.400;2023-06-24T02:20:57;98902.72;;;18.62
64394;BMP280;50712;49.506;10.400;2023-06-24T02:21:30;98901.97;;;18.62
64394;BMP280;50712;49.506;10.400;2023-06-24T02:22:01;98895.97;;;18.63
64394;BMP280;50712;49.506;10.400;2023-06-24T02:22:32;98900.72;;;18.63
64394;BMP280;50712;49.506;10.400;2023-06-24T02:23:02;98897.97;;;18.63
64394;BMP280;50712;49.506;10.400;2023-06-24T02:23:35;98899.22;;;18.62
64394;BMP280;50712;49.506;10.400;2023-06-24T02:24:08;98895.19;;;18.63
64394;BMP280;50712;49.506;10.400;2023-06-24T02:24:39;98897.19;;;18.62
64394;BMP280;50712;49.506;10.400;2023-06-24T02:25:11;98897.97;;;18.63
64394;BMP280;50712;49.506;10.400;2023-06-24T02:25:42;98895.69;;;18.61
64394;BMP280;50712;49.506;10.400;2023-06-24T02:26:13;98890.94;;;18.62
64394;BMP280;50712;49.506;10.400;2023-06-24T02:26:45;98898.44;;;18.61
64394;BMP280;50712;49.506;10.400;2023-06-24T02:27:17;98889.41;;;18.61
64394;BMP280;50712;49.506;10.400;2023-06-24T02:27:49;98896.91;;;18.60
64394;BMP280;50712;49.506;10.400;2023-06-24T02:28:20;98887.84;;;18.60
64394;BMP280;50712;49.506;10.400;2023-06-24T02:28:51;98893.91;;;18.58
64394;BMP280;50712;49.506;10.400;2023-06-24T02:29:23;98893.13;;;18.58
64394;BMP280;50712;49.506;10.400;2023-06-24T02:29:55;98893.59;;;18.56
64394;BMP280;50712;49.506;10.400;2023-06-24T02:30:29;98892.06;;;18.55
64394;BMP280;50712;49.506;10.400;2023-06-24T02:31:00;98887.81;;;18.54
64394;BMP280;50712;49.506;10.400;2023-06-24T02:31:31;98892.56;;;18.54
64394;BMP280;50712;49.506;10.400;2023-06-24T02:32:01;98893.78;;;18.53
64394;BMP280;50712;49.506;10.400;2023-06-24T02:32:32;98891.78;;;18.53
64394;BMP280;50712;49.506;10.400;2023-06-24T02:33:02;98890.28;;;18.52
64394;BMP280;50712;49.506;10.400;2023-06-24T02:33:33;98884.44;;;18.50
64394;BMP280;50712;49.506;10.400;2023-06-24T02:34:04;98884.97;;;18.49
64394;BMP280;50712;49.506;10.400;2023-06-24T02:34:34;98887.72;;;18.49
64394;BMP280;50712;49.506;10.400;2023-06-24T02:35:05;98894.47;;;18.48
64394;BMP280;50712;49.506;10.400;2023-06-24T02:35:37;98890.94;;;18.47
64394;BMP280;50712;49.506;10.400;2023-06-24T02:36:08;98885.91;;;18.46
64394;BMP280;50712;49.506;10.400;2023-06-24T02:36:39;98880.88;;;18.44
64394;BMP280;50712;49.506;10.400;2023-06-24T02:37:10;98883.63;;;18.44
64394;BMP280;50712;49.506;10.400;2023-06-24T02:37:40;98877.84;;;18.42
64394;BMP280;50712;49.506;10.400;2023-06-24T02:38:11;98882.59;;;18.42
64394;BMP280;50712;49.506;10.400;2023-06-24T02:38:41;98879.81;;;18.42
64394;BMP280;50712;49.506;10.400;2023-06-24T02:39:12;98883.06;;;18.40
64394;BMP280;50712;49.506;10.400;2023-06-24T02:39:42;98885.09;;;18.40
64394;BMP280;50712;49.506;10.400;2023-06-24T02:40:14;98885.09;;;18.40
64394;BMP280;50712;49.506;10.400;2023-06-24T02:40:46;98881.56;;;18.39
64394;BMP280;50712;49.506;10.400;2023-06-24T02:41:17;98887.53;;;18.38
64394;BMP280;50712;49.506;10.400;2023-06-24T02:41:48;98884.00;;;18.37
64394;BMP280;50712;49.506;10.400;2023-06-24T02:42:19;98890.28;;;18.38
64394;BMP280;50712;49.506;10.400;2023-06-24T02:42:50;98885.25;;;18.36
64394;BMP280;50712;49.506;10.400;2023-06-24T02:43:20;98891.53;;;18.37
64394;BMP280;50712;49.506;10.400;2023-06-24T02:43:50;98895.56;;;18.36
64394;BMP280;50712;49.506;10.400;2023-06-24T02:44:21;98892.81;;;18.36
64394;BMP280;50712;49.506;10.400;2023-06-24T02:44:52;98892.81;;;18.36
64394;BMP280;50712;49.506;10.400;2023-06-24T02:45:23;98894.78;;;18.35
64394;BMP280;50712;49.506;10.400;2023-06-24T02:45:53;98898.00;;;18.34
64394;BMP280;50712;49.506;10.400;2023-06-24T02:46:25;98898.00;;;18.34
64394;BMP280;50712;49.506;10.400;2023-06-24T02:46:59;98895.25;;;18.34
64394;BMP280;50712;49.506;10.400;2023-06-24T02:47:30;98889.00;;;18.33
64394;BMP280;50712;49.506;10.400;2023-06-24T02:48:03;98891.75;;;18.33
64394;BMP280;50712;49.506;10.400;2023-06-24T02:48:36;98898.00;;;18.34
64394;BMP280;50712;49.506;10.400;2023-06-24T02:49:08;98894.50;;;18.33
64394;BMP280;50712;49.506;10.400;2023-06-24T02:49:40;98898.50;;;18.32
64394;BMP280;50712;49.506;10.400;2023-06-24T02:50:13;98903.25;;;18.32
64394;BMP280;50712;49.506;10.400;2023-06-24T02:50:44;98899.75;;;18.31
64394;BMP280;50712;49.506;10.400;2023-06-24T02:51:17;98893.44;;;18.31
64394;BMP280;50712;49.506;10.400;2023-06-24T02:51:48;98899.75;;;18.31
64394;BMP280;50712;49.506;10.400;2023-06-24T02:52:19;98900.22;;;18.30
64394;BMP280;50712;49.506;10.400;2023-06-24T02:52:51;98897.47;;;18.30
64394;BMP280;50712;49.506;10.400;2023-06-24T02:53:24;98898.69;;;18.29
64394;BMP280;50712;49.506;10.400;2023-06-24T02:53:55;98901.44;;;18.29
64394;BMP280;50712;49.506;10.400;2023-06-24T02:54:39;98900.69;;;18.28
64394;BMP280;50712;49.506;10.400;2023-06-24T02:55:28;98895.69;;;18.27
64394;BMP280;50712;49.506;10.400;2023-06-24T02:56:06;98897.66;;;18.26
64394;BMP280;50712;49.506;10.400;2023-06-24T02:56:39;98905.16;;;18.26
64394;BMP280;50712;49.506;10.400;2023-06-24T02:57:18;98902.41;;;18.26
64394;BMP280;50712;49.506;10.400;2023-06-24T02:58:19;98912.69;;;18.25
64394;BMP280;50712;49.506;10.400;2023-06-24T02:59:05;98909.16;;;18.25
64394;BMP280;50712;49.506;10.400;2023-06-24T02:59:36;98902.13;;;18.24
64394;BMP280;50712;49.506;10.400;2023-06-24T03:00:10;98909.63;;;18.23
64394;BMP280;50712;49.506;10.400;2023-06-24T03:01:03;98909.63;;;18.23
64394;BMP280;50712;49.506;10.400;2023-06-24T03:01:55;98911.63;;;18.23
64394;BMP280;50712;49.506;10.400;2023-06-24T03:02:25;98914.38;;;18.23
64394;BMP280;50712;49.506;10.400;2023-06-24T03:02:56;98910.41;;;18.24
64394;BMP280;50712;49.506;10.400;2023-06-24T03:03:28;98913.63;;;18.22
64394;BMP280;50712;49.506;10.400;2023-06-24T03:04:00;98906.13;;;18.23
64394;BMP280;50712;49.506;10.400;2023-06-24T03:04:30;98912.88;;;18.22
64394;BMP280;50712;49.506;10.400;2023-06-24T03:05:01;98910.84;;;18.22
64394;BMP280;50712;49.506;10.400;2023-06-24T03:05:34;98910.84;;;18.22
64394;BMP280;50712;49.506;10.400;2023-06-24T03:06:06;98912.88;;;18.22
64394;BMP280;50712;49.506;10.400;2023-06-24T03:06:38;98906.59;;;18.21
64394;BMP280;50712;49.506;10.400;2023-06-24T03:07:10;98914.88;;;18.21
64394;BMP280;50712;49.506;10.400;2023-06-24T03:07:44;98912.59;;;18.20
64394;BMP280;50712;49.506;10.400;2023-06-24T03:08:15;98912.59;;;18.20
64394;BMP280;50712;49.506;10.400;2023-06-24T03:08:48;98909.84;;;18.20
64394;BMP280;50712;49.506;10.400;2023-06-24T03:09:21;98907.53;;;18.18
64394;BMP280;50712;49.506;10.400;2023-06-24T03:09:52;98906.06;;;18.17
64394;BMP280;50712;49.506;10.400;2023-06-24T03:10:23;98910.81;;;18.17
64394;BMP280;50712;49.506;10.400;2023-06-24T03:10:55;98904.97;;;18.15
64394;BMP280;50712;49.506;10.400;2023-06-24T03:11:28;98906.22;;;18.14
64394;BMP280;50712;49.506;10.400;2023-06-24T03:12:00;98903.94;;;18.12
64394;BMP280;50712;49.506;10.400;2023-06-24T03:12:40;98906.41;;;18.10
64394;BMP280;50712;49.506;10.400;2023-06-24T03:13:11;98906.88;;;18.09
64394;BMP280;50712;49.506;10.400;2023-06-24T03:13:48;98910.13;;;18.07
64394;BMP280;50712;49.506;10.400;2023-06-24T03:14:22;98908.59;;;18.06
64394;BMP280;50712;49.506;10.400;2023-06-24T03:14:53;98907.09;;;18.05
64394;BMP280;50712;49.506;10.400;2023-06-24T03:15:23;98909.56;;;18.03
64394;BMP280;50712;49.506;10.400;2023-06-24T03:15:54;98908.78;;;18.03
64394;BMP280;50712;49.506;10.400;2023-06-24T03:16:25;98913.53;;;18.02
64394;BMP280;50712;49.506;10.400;2023-06-24T03:16:59;98901.00;;;18.01
64394;BMP280;50712;49.506;10.400;2023-06-24T03:17:30;98907.75;;;18.00